createdAt,value
2023-05-17T00:02:01.273Z,18.46
2023-05-17T00:04:28.404Z,18.45
2023-05-17T00:06:55.263Z,18.44
2023-05-17T00:09:22.013Z,18.43
2023-05-17T00:11:48.779Z,18.41
2023-05-17T00:14:16.320Z,18.42
2023-05-17T00:16:43.194Z,18.41
2023-05-17T00:19:10.238Z,18.41
2023-05-17T00:21:37.236Z,18.41
2023-05-17T00:24:04.274Z,18.40
2023-05-17T00:26:31.048Z,18.38
2023-05-17T00:28:57.834Z,18.38
2023-05-17T00:31:24.635Z,18.37
2023-05-17T00:33:51.440Z,18.37
2023-05-17T00:36:18.184Z,18.38
2023-05-17T00:38:44.938Z,18.35
2023-05-17T00:41:13.215Z,18.35
2023-05-17T00:43:40.566Z,18.35
2023-05-17T00:46:07.428Z,18.34
2023-05-17T00:48:34.427Z,18.34
2023-05-17T00:51:01.401Z,18.32
2023-05-17T00:53:29.289Z,18.31
2023-05-17T00:55:56.220Z,18.32
2023-05-17T00:58:24.254Z,18.32
2023-05-17T01:00:51.759Z,18.30
2023-05-17T01:03:18.797Z,18.31
2023-05-17T01:05:45.696Z,18.29
2023-05-17T01:08:12.419Z,18.28
2023-05-17T01:10:57.293Z,18.28
2023-05-17T01:13:39.377Z,18.25
2023-05-17T01:16:16.445Z,18.27
2023-05-17T01:19:25.022Z,18.25
2023-05-17T01:22:16.058Z,18.25
2023-05-17T01:24:53.137Z,18.26
2023-05-17T01:27:22.206Z,18.25
2023-05-17T01:29:50.903Z,18.24
2023-05-17T01:32:18.258Z,18.23
2023-05-17T01:34:45.041Z,18.20
2023-05-17T01:37:11.910Z,18.22
2023-05-17T01:39:38.769Z,18.24
2023-05-17T01:42:23.013Z,18.23
2023-05-17T01:45:20.913Z,18.22
2023-05-17T01:47:57.184Z,18.18
2023-05-17T01:50:27.223Z,18.21
2023-05-17T01:52:56.181Z,18.19
2023-05-17T01:55:43.980Z,18.17
2023-05-17T01:58:12.826Z,18.16
2023-05-17T02:00:41.821Z,18.17
2023-05-17T02:03:13.112Z,18.16
2023-05-17T02:05:39.874Z,18.16
2023-05-17T02:08:06.735Z,18.14
2023-05-17T02:10:33.627Z,18.16
2023-05-17T02:13:00.400Z,18.14
2023-05-17T02:15:27.412Z,18.13
2023-05-17T02:17:54.721Z,18.14
2023-05-17T02:20:21.618Z,18.13
2023-05-17T02:22:48.381Z,18.11
2023-05-17T02:25:15.180Z,18.11
2023-05-17T02:27:41.983Z,18.11
2023-05-17T02:30:09.444Z,18.11
2023-05-17T02:32:36.334Z,18.10
2023-05-17T02:35:03.246Z,18.09
2023-05-17T02:37:30.349Z,18.07
2023-05-17T02:39:57.180Z,18.08
2023-05-17T02:42:23.941Z,18.07
2023-05-17T02:44:53.433Z,18.05
2023-05-17T02:47:21.480Z,18.05
2023-05-17T02:49:48.466Z,18.04
2023-05-17T02:52:16.439Z,18.03
2023-05-17T02:54:46.095Z,18.03
2023-05-17T02:57:12.886Z,18.01
2023-05-17T02:59:39.705Z,18.02
2023-05-17T03:02:06.973Z,17.97
2023-05-17T03:04:34.242Z,18.00
2023-05-17T03:07:01.006Z,18.00
2023-05-17T03:09:30.036Z,17.99
2023-05-17T03:11:56.833Z,18.00
2023-05-17T03:14:23.646Z,17.98
2023-05-17T03:16:50.973Z,17.95
2023-05-17T03:19:18.117Z,17.94
2023-05-17T03:21:44.998Z,17.94
2023-05-17T03:24:11.857Z,17.94
2023-05-17T03:26:38.582Z,17.91
2023-05-17T03:29:05.432Z,17.91
2023-05-17T03:31:32.395Z,17.91
2023-05-17T03:33:59.232Z,17.89
2023-05-17T03:36:26.317Z,17.90
2023-05-17T03:38:53.106Z,17.91
2023-05-17T03:41:20.042Z,17.90
2023-05-17T03:43:46.794Z,17.88
2023-05-17T03:46:14.702Z,17.88
2023-05-17T03:48:41.495Z,17.86
2023-05-17T03:51:08.367Z,17.87
2023-05-17T03:53:41.289Z,17.89
2023-05-17T03:56:08.266Z,17.87
2023-05-17T03:58:35.106Z,17.84
2023-05-17T04:01:01.964Z,17.86
2023-05-17T04:03:28.796Z,17.84
2023-05-17T04:06:03.203Z,17.87
2023-05-17T04:08:30.088Z,17.86
2023-05-17T04:10:56.818Z,17.88
2023-05-17T04:13:23.532Z,17.86
2023-05-17T04:15:50.383Z,17.86
2023-05-17T04:18:17.237Z,17.84
2023-05-17T04:20:44.126Z,17.82
2023-05-17T04:23:10.995Z,17.85
2023-05-17T04:25:37.959Z,17.84
2023-05-17T04:28:05.577Z,17.84
2023-05-17T04:30:35.443Z,17.85
2023-05-17T04:33:02.783Z,17.82
2023-05-17T04:35:29.934Z,17.83
2023-05-17T04:37:56.808Z,17.83
2023-05-17T04:40:23.960Z,17.82
2023-05-17T04:42:50.891Z,17.84
2023-05-17T04:45:17.968Z,17.83
2023-05-17T04:47:45.030Z,17.82
2023-05-17T04:50:12.740Z,17.81
2023-05-17T04:52:39.503Z,17.83
2023-05-17T04:55:06.693Z,17.83
2023-05-17T04:57:33.595Z,17.83
2023-05-17T05:00:00.681Z,17.85
2023-05-17T05:02:27.432Z,17.83
2023-05-17T05:05:13.276Z,17.85
2023-05-17T05:08:00.707Z,17.83
2023-05-17T05:10:28.944Z,17.81
2023-05-17T05:13:05.060Z,17.82
2023-05-17T05:15:33.161Z,17.82
2023-05-17T05:18:00.281Z,17.81
2023-05-17T05:20:28.091Z,17.81
2023-05-17T05:22:55.168Z,17.81
2023-05-17T05:25:21.962Z,17.81
2023-05-17T05:27:48.750Z,17.84
2023-05-17T05:30:22.586Z,17.84
2023-05-17T05:32:50.552Z,17.85
2023-05-17T05:35:18.016Z,17.86
2023-05-17T05:37:45.383Z,17.85
2023-05-17T05:40:12.987Z,17.87
2023-05-17T05:42:39.792Z,17.86
2023-05-17T05:45:07.308Z,17.87
2023-05-17T05:47:34.120Z,17.89
2023-05-17T05:50:00.994Z,17.89
2023-05-17T05:52:27.734Z,17.94
2023-05-17T05:54:54.753Z,17.96
2023-05-17T05:57:21.926Z,17.96
2023-05-17T05:59:48.710Z,18.01
2023-05-17T06:02:17.465Z,18.02
2023-05-17T06:04:45.959Z,18.04
2023-05-17T06:07:13.815Z,18.04
2023-05-17T06:09:40.881Z,18.05
2023-05-17T06:12:07.746Z,18.07
2023-05-17T06:14:34.624Z,18.09
2023-05-17T06:17:01.491Z,18.09
2023-05-17T06:19:28.592Z,18.08
2023-05-17T06:21:55.627Z,18.11
2023-05-17T06:24:22.531Z,18.10
2023-05-17T06:26:49.291Z,18.10
2023-05-17T06:29:16.084Z,18.12
2023-05-17T06:31:42.862Z,18.14
2023-05-17T06:34:09.733Z,18.14
2023-05-17T06:36:38.431Z,18.14
2023-05-17T06:39:05.813Z,18.16
2023-05-17T06:41:32.607Z,18.16
2023-05-17T06:43:59.367Z,18.18
2023-05-17T06:46:26.153Z,18.19
2023-05-17T06:48:53.052Z,18.19
2023-05-17T06:51:19.950Z,18.20
2023-05-17T06:53:46.675Z,18.22
2023-05-17T06:56:13.474Z,18.23
2023-05-17T06:58:40.244Z,18.22
2023-05-17T07:01:28.221Z,18.24
2023-05-17T07:04:15.125Z,18.22
2023-05-17T07:06:42.139Z,18.21
2023-05-17T07:09:08.992Z,18.24
2023-05-17T07:11:35.743Z,18.26
2023-05-17T07:14:02.556Z,18.27
2023-05-17T07:16:29.328Z,18.27
2023-05-17T07:18:56.517Z,18.26
2023-05-17T07:21:24.082Z,18.27
2023-05-17T07:23:51.179Z,18.26
2023-05-17T07:26:21.455Z,18.24
2023-05-17T07:28:49.408Z,18.26
2023-05-17T07:31:16.269Z,18.26
2023-05-17T07:33:43.246Z,18.25
2023-05-17T07:36:10.246Z,18.26
2023-05-17T07:38:37.065Z,18.27
2023-05-17T07:41:06.908Z,18.26
2023-05-17T07:43:33.649Z,18.28
2023-05-17T07:46:01.801Z,18.29
2023-05-17T07:48:28.617Z,18.28
2023-05-17T07:50:55.855Z,18.28
2023-05-17T07:53:22.569Z,18.32
2023-05-17T07:55:49.624Z,18.31
2023-05-17T07:58:16.457Z,18.34
2023-05-17T08:00:43.316Z,18.32
2023-05-17T08:03:10.224Z,18.33
2023-05-17T08:05:37.374Z,18.33
2023-05-17T08:08:04.383Z,18.36
2023-05-17T08:10:31.403Z,18.38
2023-05-17T08:12:58.586Z,18.39
2023-05-17T08:15:27.305Z,18.39
2023-05-17T08:17:54.373Z,18.42
2023-05-17T08:20:21.425Z,18.41
2023-05-17T08:22:48.463Z,18.42
2023-05-17T08:25:15.198Z,18.45
2023-05-17T08:27:42.007Z,18.46
2023-05-17T08:30:11.898Z,18.46
2023-05-17T08:32:41.976Z,18.45
2023-05-17T08:35:08.965Z,18.44
2023-05-17T08:37:35.736Z,18.45
2023-05-17T08:40:03.411Z,18.45
2023-05-17T08:42:31.002Z,18.46
2023-05-17T08:44:57.853Z,18.51
2023-05-17T08:47:30.205Z,18.52
2023-05-17T08:50:06.113Z,18.53
2023-05-17T08:52:53.889Z,18.55
2023-05-17T08:55:21.748Z,18.57
2023-05-17T08:57:50.464Z,18.58
2023-05-17T09:00:21.955Z,18.60
2023-05-17T09:02:49.621Z,18.61
2023-05-17T09:05:17.645Z,18.61
2023-05-17T09:07:45.052Z,18.67
2023-05-17T09:10:13.820Z,18.67
2023-05-17T09:12:40.954Z,18.74
2023-05-17T09:15:19.159Z,18.79
2023-05-17T09:17:55.937Z,18.84
2023-05-17T09:20:34.588Z,18.89
2023-05-17T09:23:02.325Z,18.89
2023-05-17T09:25:30.421Z,18.91
2023-05-17T09:28:04.553Z,18.90
2023-05-17T09:30:33.426Z,18.90
2023-05-17T09:33:08.484Z,18.88
2023-05-17T09:35:38.886Z,18.87
2023-05-17T09:38:09.618Z,18.89
2023-05-17T09:40:41.596Z,18.88
2023-05-17T09:43:08.851Z,18.91
2023-05-17T09:45:36.471Z,18.91
2023-05-17T09:48:19.517Z,18.91
2023-05-17T09:50:52.801Z,18.96
2023-05-17T09:53:30.728Z,19.01
2023-05-17T09:56:00.222Z,19.00
2023-05-17T09:58:29.214Z,19.04
2023-05-17T10:01:02.121Z,19.10
2023-05-17T10:03:33.568Z,19.13
2023-05-17T10:06:02.531Z,19.10
2023-05-17T10:08:30.326Z,19.03
2023-05-17T10:11:03.720Z,18.98
2023-05-17T10:13:44.875Z,18.98
2023-05-17T10:16:12.338Z,18.97
2023-05-17T10:18:40.941Z,18.97
2023-05-17T10:21:08.631Z,19.00
2023-05-17T10:23:37.063Z,19.11
2023-05-17T10:26:04.708Z,19.21
2023-05-17T10:28:33.259Z,19.24
2023-05-17T10:31:00.660Z,19.26
2023-05-17T10:33:28.319Z,19.26
2023-05-17T10:35:56.550Z,19.30
2023-05-17T10:38:31.980Z,19.25
2023-05-17T10:41:06.552Z,19.21
2023-05-17T10:43:34.497Z,19.26
2023-05-17T10:46:03.845Z,19.31
2023-05-17T10:48:33.601Z,19.34
2023-05-17T10:51:06.935Z,19.38
2023-05-17T10:53:34.074Z,19.43
2023-05-17T10:56:01.049Z,19.50
2023-05-17T10:58:28.732Z,19.54
2023-05-17T11:00:56.667Z,19.58
2023-05-17T11:03:30.736Z,19.58
2023-05-17T11:06:24.733Z,19.58
2023-05-17T11:09:14.513Z,19.61
2023-05-17T11:12:03.930Z,19.60
2023-05-17T11:14:45.974Z,19.60
2023-05-17T11:17:18.134Z,19.67
2023-05-17T11:19:57.523Z,19.73
2023-05-17T11:22:28.704Z,19.72
2023-05-17T11:24:57.881Z,19.69
2023-05-17T11:27:31.475Z,19.69
2023-05-17T11:30:00.420Z,19.74
2023-05-17T11:32:32.164Z,19.86
2023-05-17T11:35:02.251Z,19.92
2023-05-17T11:37:30.222Z,19.91
2023-05-17T11:40:08.588Z,19.83
2023-05-17T11:42:38.630Z,19.82
2023-05-17T11:45:07.664Z,19.86
2023-05-17T11:47:38.869Z,19.95
2023-05-17T11:50:06.982Z,20.02
2023-05-17T11:52:34.517Z,20.09
2023-05-17T11:55:01.892Z,20.15
2023-05-17T11:57:32.299Z,20.26
2023-05-17T12:00:05.357Z,20.13
2023-05-17T12:02:33.305Z,20.06
2023-05-17T12:05:00.400Z,20.09
2023-05-17T12:07:28.084Z,20.21
2023-05-17T12:09:55.054Z,20.18
2023-05-17T12:12:22.770Z,20.09
2023-05-17T12:14:50.798Z,20.06
2023-05-17T12:17:28.049Z,20.05
2023-05-17T12:19:55.568Z,20.04
2023-05-17T12:22:22.566Z,20.14
2023-05-17T12:24:49.373Z,20.37
2023-05-17T12:27:26.280Z,20.48
2023-05-17T12:29:54.026Z,20.52
2023-05-17T12:32:21.497Z,20.56
2023-05-17T12:34:49.637Z,20.62
2023-05-17T12:37:16.766Z,20.61
2023-05-17T12:39:44.561Z,20.53
2023-05-17T12:42:11.765Z,20.41
2023-05-17T12:44:39.450Z,20.40
2023-05-17T12:47:06.745Z,20.40
2023-05-17T12:49:38.659Z,20.56
2023-05-17T12:52:05.880Z,20.65
2023-05-17T12:54:33.547Z,20.66
2023-05-17T12:57:12.280Z,20.61
2023-05-17T13:00:09.814Z,20.57
2023-05-17T13:02:36.674Z,20.64
2023-05-17T13:05:18.913Z,20.82
2023-05-17T13:07:46.556Z,20.83
2023-05-17T13:10:24.337Z,20.70
2023-05-17T13:12:57.885Z,20.70
2023-05-17T13:15:29.065Z,20.76
2023-05-17T13:17:56.071Z,20.92
2023-05-17T13:20:23.295Z,20.94
2023-05-17T13:22:50.257Z,20.86
2023-05-17T13:25:17.142Z,21.03
2023-05-17T13:27:48.654Z,20.77
2023-05-17T13:30:16.828Z,20.60
2023-05-17T13:32:44.509Z,20.57
2023-05-17T13:35:11.638Z,20.65
2023-05-17T13:37:38.406Z,20.65
2023-05-17T13:40:06.123Z,20.75
2023-05-17T13:42:33.354Z,20.78
2023-05-17T13:45:01.778Z,20.71
2023-05-17T13:47:32.627Z,20.69
2023-05-17T13:50:00.813Z,20.69
2023-05-17T13:52:28.153Z,20.66
2023-05-17T13:54:55.326Z,20.63
2023-05-17T13:57:22.154Z,20.55
2023-05-17T13:59:49.069Z,20.51
2023-05-17T14:02:16.118Z,20.61
2023-05-17T14:04:42.954Z,20.68
2023-05-17T14:07:09.790Z,20.91
2023-05-17T14:09:37.074Z,20.91
2023-05-17T14:12:04.667Z,20.94
2023-05-17T14:14:31.937Z,21.05
2023-05-17T14:16:58.816Z,21.04
2023-05-17T14:19:25.811Z,21.03
2023-05-17T14:21:52.669Z,20.91
2023-05-17T14:24:19.417Z,20.73
2023-05-17T14:26:46.311Z,20.64
2023-05-17T14:29:13.139Z,20.59
2023-05-17T14:31:39.877Z,20.62
2023-05-17T14:34:06.740Z,20.63
2023-05-17T14:36:36.190Z,20.64
2023-05-17T14:39:03.932Z,20.72
2023-05-17T14:41:30.868Z,20.81
2023-05-17T14:43:57.644Z,20.91
2023-05-17T14:46:24.758Z,21.05
2023-05-17T14:48:56.637Z,21.05
2023-05-17T14:51:23.972Z,20.88
2023-05-17T14:53:50.708Z,20.78
2023-05-17T14:56:17.873Z,20.76
2023-05-17T14:58:44.831Z,20.72
2023-05-17T15:01:11.737Z,20.69
2023-05-17T15:03:38.619Z,20.64
2023-05-17T15:06:08.339Z,20.64
2023-05-17T15:08:36.391Z,20.66
2023-05-17T15:11:03.300Z,20.67
2023-05-17T15:13:30.165Z,20.65
2023-05-17T15:15:56.969Z,20.61
2023-05-17T15:18:24.259Z,20.59
2023-05-17T15:20:51.228Z,20.60
2023-05-17T15:23:18.203Z,20.60
2023-05-17T15:25:45.274Z,20.61
2023-05-17T15:28:12.392Z,20.62
2023-05-17T15:30:41.480Z,20.68
2023-05-17T15:33:09.596Z,20.74
2023-05-17T15:35:37.298Z,20.83
2023-05-17T15:38:06.187Z,20.86
2023-05-17T15:40:34.444Z,20.86
2023-05-17T15:43:01.484Z,20.83
2023-05-17T15:45:28.801Z,20.86
2023-05-17T15:47:57.342Z,20.85
2023-05-17T15:50:24.289Z,20.79
2023-05-17T15:52:51.388Z,20.72
2023-05-17T15:55:18.464Z,20.68
2023-05-17T15:57:46.798Z,20.71
2023-05-17T16:00:14.322Z,20.73
2023-05-17T16:02:41.337Z,20.74
2023-05-17T16:05:08.727Z,20.74
2023-05-17T16:07:35.554Z,20.73
2023-05-17T16:10:02.573Z,20.75
2023-05-17T16:12:29.434Z,20.78
2023-05-17T16:14:56.672Z,20.76
2023-05-17T16:17:23.473Z,20.75
2023-05-17T16:19:50.392Z,20.74
2023-05-17T16:22:17.194Z,20.72
2023-05-17T16:24:44.065Z,20.67
2023-05-17T16:27:10.880Z,20.64
2023-05-17T16:29:40.467Z,20.58
2023-05-17T16:32:08.487Z,20.54
2023-05-17T16:34:36.255Z,20.50
2023-05-17T16:37:04.934Z,20.48
2023-05-17T16:39:32.695Z,20.49
2023-05-17T16:41:59.568Z,20.47
2023-05-17T16:44:26.452Z,20.44
2023-05-17T16:46:53.306Z,20.41
2023-05-17T16:49:20.157Z,20.40
2023-05-17T16:51:47.031Z,20.37
2023-05-17T16:54:13.865Z,20.37
2023-05-17T16:56:40.654Z,20.35
2023-05-17T16:59:07.500Z,20.32
2023-05-17T17:01:34.314Z,20.31
2023-05-17T17:04:02.032Z,20.28
2023-05-17T17:06:28.936Z,20.26
2023-05-17T17:08:55.831Z,20.23
2023-05-17T17:11:22.687Z,20.23
2023-05-17T17:13:50.211Z,20.24
2023-05-17T17:16:17.667Z,20.29
2023-05-17T17:18:44.613Z,20.29
2023-05-17T17:21:11.467Z,20.29
2023-05-17T17:23:39.968Z,20.29
2023-05-17T17:26:08.837Z,20.29
2023-05-17T17:28:35.692Z,20.28
2023-05-17T17:31:02.489Z,20.26
2023-05-17T17:33:29.358Z,20.24
2023-05-17T17:35:56.345Z,20.24
2023-05-17T17:38:23.121Z,20.21
2023-05-17T17:40:49.879Z,20.20
2023-05-17T17:43:17.212Z,20.17
2023-05-17T17:45:46.493Z,20.15
2023-05-17T17:48:13.548Z,20.14
2023-05-17T17:50:40.388Z,20.14
2023-05-17T17:53:07.216Z,20.11
2023-05-17T17:55:34.028Z,20.12
2023-05-17T17:58:00.861Z,20.10
2023-05-17T18:00:27.743Z,20.09
2023-05-17T18:02:55.409Z,20.08
2023-05-17T18:05:22.280Z,20.07
2023-05-17T18:07:48.983Z,20.05
2023-05-17T18:10:15.875Z,20.04
2023-05-17T18:12:42.736Z,20.01
2023-05-17T18:15:11.037Z,20.02
2023-05-17T18:17:39.395Z,20.01
2023-05-17T18:20:09.905Z,20.00
2023-05-17T18:22:36.764Z,19.98
2023-05-17T18:25:03.647Z,19.97
2023-05-17T18:27:30.384Z,19.97
2023-05-17T18:29:57.677Z,19.95
2023-05-17T18:32:24.649Z,19.94
2023-05-17T18:34:51.790Z,19.91
2023-05-17T18:37:18.625Z,19.91
2023-05-17T18:39:45.394Z,19.89
2023-05-17T18:42:12.250Z,19.88
2023-05-17T18:44:39.117Z,19.87
2023-05-17T18:47:07.024Z,19.87
2023-05-17T18:49:34.404Z,19.85
2023-05-17T18:52:01.136Z,19.84
2023-05-17T18:54:27.948Z,19.84
2023-05-17T18:56:54.678Z,19.82
2023-05-17T18:59:21.456Z,19.80
2023-05-17T19:01:48.328Z,19.79
2023-05-17T19:04:15.123Z,19.79
2023-05-17T19:06:42.563Z,19.78
2023-05-17T19:09:09.507Z,19.78
2023-05-17T19:11:36.463Z,19.76
2023-05-17T19:14:03.493Z,19.76
2023-05-17T19:16:30.460Z,19.76
2023-05-17T19:18:57.497Z,19.73
2023-05-17T19:21:24.284Z,19.74
2023-05-17T19:23:51.010Z,19.71
2023-05-17T19:26:18.127Z,19.72
2023-05-17T19:28:44.863Z,19.69
2023-05-17T19:31:12.238Z,19.69
2023-05-17T19:33:39.170Z,19.67
2023-05-17T19:36:06.118Z,19.67
2023-05-17T19:38:33.571Z,19.65
2023-05-17T19:41:01.789Z,19.65
2023-05-17T19:43:29.143Z,19.65
2023-05-17T19:45:55.998Z,19.62
2023-05-17T19:48:24.461Z,19.62
2023-05-17T19:50:51.694Z,19.60
2023-05-17T19:53:18.653Z,19.60
2023-05-17T19:55:45.543Z,19.58
2023-05-17T19:58:12.605Z,19.57
2023-05-17T20:00:39.457Z,19.56
2023-05-17T20:03:06.430Z,19.55
2023-05-17T20:05:33.548Z,19.52
2023-05-17T20:08:02.803Z,19.52
2023-05-17T20:10:31.805Z,19.50
2023-05-17T20:12:58.730Z,19.50
2023-05-17T20:15:25.770Z,19.49
2023-05-17T20:17:52.689Z,19.47
2023-05-17T20:20:22.374Z,19.46
2023-05-17T20:22:49.235Z,19.47
2023-05-17T20:25:16.221Z,19.45
2023-05-17T20:27:44.068Z,19.43
2023-05-17T20:30:12.023Z,19.43
2023-05-17T20:32:38.880Z,19.43
2023-05-17T20:35:06.224Z,19.42
2023-05-17T20:37:33.124Z,19.40
2023-05-17T20:40:00.613Z,19.40
2023-05-17T20:42:28.377Z,19.38
2023-05-17T20:44:55.727Z,19.38
2023-05-17T20:47:22.707Z,19.37
2023-05-17T20:49:50.529Z,19.35
2023-05-17T20:52:31.270Z,19.35
2023-05-17T20:55:04.976Z,19.34
2023-05-17T20:57:31.929Z,19.32
2023-05-17T20:59:58.726Z,19.32
2023-05-17T21:02:25.651Z,19.30
2023-05-17T21:04:55.187Z,19.30
2023-05-17T21:07:22.660Z,19.29
2023-05-17T21:09:49.527Z,19.27
2023-05-17T21:12:16.379Z,19.24
2023-05-17T21:14:43.358Z,19.24
2023-05-17T21:17:10.602Z,19.23
2023-05-17T21:19:37.431Z,19.23
2023-05-17T21:22:04.471Z,19.23
2023-05-17T21:24:31.254Z,19.21
2023-05-17T21:26:58.048Z,19.19
2023-05-17T21:29:24.900Z,19.17
2023-05-17T21:31:51.720Z,19.16
2023-05-17T21:34:18.473Z,19.16
2023-05-17T21:36:45.282Z,19.15
2023-05-17T21:39:12.206Z,19.15
2023-05-17T21:41:38.955Z,19.13
2023-05-17T21:44:05.805Z,19.13
2023-05-17T21:46:32.810Z,19.12
2023-05-17T21:48:59.618Z,19.10
2023-05-17T21:51:27.001Z,19.08
2023-05-17T21:53:53.759Z,19.09
2023-05-17T21:56:20.669Z,19.07
2023-05-17T21:58:47.400Z,19.07
2023-05-17T22:01:14.320Z,19.07
2023-05-17T22:03:41.898Z,19.06
2023-05-17T22:06:08.859Z,19.03
2023-05-17T22:08:35.617Z,19.02
2023-05-17T22:11:02.651Z,19.01
2023-05-17T22:13:29.429Z,19.00
2023-05-17T22:15:57.773Z,18.98
2023-05-17T22:18:24.954Z,18.99
2023-05-17T22:20:53.415Z,18.97
2023-05-17T22:23:20.867Z,18.97
2023-05-17T22:25:47.667Z,18.97
2023-05-17T22:28:14.434Z,18.94
2023-05-17T22:30:41.341Z,18.95
2023-05-17T22:33:08.195Z,18.93
2023-05-17T22:35:35.089Z,18.93
2023-05-17T22:38:01.915Z,18.92
2023-05-17T22:40:28.849Z,18.91
2023-05-17T22:42:58.341Z,18.90
2023-05-17T22:45:26.245Z,18.88
2023-05-17T22:47:53.137Z,18.87
2023-05-17T22:50:19.986Z,18.87
2023-05-17T22:52:46.729Z,18.86
2023-05-17T22:55:13.558Z,18.86
2023-05-17T22:57:40.303Z,18.83
2023-05-17T23:00:09.443Z,18.83
2023-05-17T23:02:36.404Z,18.83
2023-05-17T23:05:03.468Z,18.80
2023-05-17T23:07:37.395Z,18.81
2023-05-17T23:10:07.012Z,18.79
2023-05-17T23:12:34.513Z,18.79
2023-05-17T23:15:01.312Z,18.78
2023-05-17T23:17:32.620Z,18.77
2023-05-17T23:20:13.189Z,18.76
2023-05-17T23:22:40.267Z,18.75
2023-05-17T23:25:07.372Z,18.72
2023-05-17T23:27:35.613Z,18.71
2023-05-17T23:30:03.254Z,18.70
2023-05-17T23:32:32.847Z,18.68
2023-05-17T23:35:06.122Z,18.69
2023-05-17T23:37:33.754Z,18.69
2023-05-17T23:40:00.895Z,18.66
2023-05-17T23:42:29.917Z,18.64
2023-05-17T23:44:56.788Z,18.64
2023-05-17T23:47:23.608Z,18.64
2023-05-17T23:49:51.188Z,18.64
2023-05-17T23:52:19.224Z,18.64
2023-05-17T23:54:47.443Z,18.62
2023-05-17T23:57:14.282Z,18.60
2023-05-17T23:59:41.048Z,18.60
